sensor_id;sensor_type;location;lat;lon;timestamp;P1;durP1;ratioP1;P2;durP2;ratioP2
74309;SDS011;62722;51.142;17.052;2023-02-13T00:01:08;15.25;;;6.25;;
74309;SDS011;62722;51.142;17.052;2023-02-13T00:03:36;15.25;;;6.20;;
74309;SDS011;62722;51.142;17.052;2023-02-13T00:06:03;16.75;;;6.45;;
74309;SDS011;62722;51.142;17.052;2023-02-13T00:08:31;16.40;;;6.88;;
74309;SDS011;62722;51.142;17.052;2023-02-13T00:10:59;13.30;;;7.22;;
74309;SDS011;62722;51.142;17.052;2023-02-13T00:13:27;15.50;;;6.25;;
74309;SDS011;62722;51.142;17.052;2023-02-13T00:15:54;14.45;;;5.70;;
74309;SDS011;62722;51.142;17.052;2023-02-13T00:18:22;15.77;;;7.18;;
74309;SDS011;62722;51.142;17.052;2023-02-13T00:20:56;20.50;;;6.72;;
74309;SDS011;62722;51.142;17.052;2023-02-13T00:23:24;16.58;;;7.15;;
74309;SDS011;62722;51.142;17.052;2023-02-13T00:25:51;15.90;;;6.82;;
74309;SDS011;62722;51.142;17.052;2023-02-13T00:28:20;16.95;;;6.75;;
74309;SDS011;62722;51.142;17.052;2023-02-13T00:30:47;17.77;;;6.85;;
74309;SDS011;62722;51.142;17.052;2023-02-13T00:33:14;13.95;;;6.35;;
74309;SDS011;62722;51.142;17.052;2023-02-13T00:35:41;12.30;;;5.20;;
74309;SDS011;62722;51.142;17.052;2023-02-13T00:38:08;17.42;;;5.50;;
74309;SDS011;62722;51.142;17.052;2023-02-13T00:40:35;14.57;;;6.45;;
74309;SDS011;62722;51.142;17.052;2023-02-13T00:43:03;14.35;;;6.60;;
74309;SDS011;62722;51.142;17.052;2023-02-13T00:45:31;15.40;;;6.22;;
74309;SDS011;62722;51.142;17.052;2023-02-13T00:47:58;12.15;;;5.95;;
74309;SDS011;62722;51.142;17.052;2023-02-13T00:50:25;14.95;;;6.30;;
74309;SDS011;62722;51.142;17.052;2023-02-13T00:52:53;13.98;;;5.95;;
74309;SDS011;62722;51.142;17.052;2023-02-13T00:55:20;14.80;;;6.00;;
74309;SDS011;62722;51.142;17.052;2023-02-13T00:57:47;13.70;;;6.43;;
74309;SDS011;62722;51.142;17.052;2023-02-13T01:00:15;12.90;;;5.53;;
74309;SDS011;62722;51.142;17.052;2023-02-13T01:02:44;17.58;;;6.15;;
74309;SDS011;62722;51.142;17.052;2023-02-13T01:05:12;15.77;;;6.57;;
74309;SDS011;62722;51.142;17.052;2023-02-13T01:07:39;13.10;;;6.15;;
74309;SDS011;62722;51.142;17.052;2023-02-13T01:10:06;16.02;;;6.30;;
74309;SDS011;62722;51.142;17.052;2023-02-13T01:12:34;14.27;;;6.00;;
74309;SDS011;62722;51.142;17.052;2023-02-13T01:15:01;14.45;;;6.13;;
74309;SDS011;62722;51.142;17.052;2023-02-13T01:17:29;15.93;;;6.70;;
74309;SDS011;62722;51.142;17.052;2023-02-13T01:19:58;13.85;;;6.18;;
74309;SDS011;62722;51.142;17.052;2023-02-13T01:22:25;11.85;;;5.97;;
74309;SDS011;62722;51.142;17.052;2023-02-13T01:24:52;17.08;;;6.97;;
74309;SDS011;62722;51.142;17.052;2023-02-13T01:27:19;14.10;;;5.88;;
74309;SDS011;62722;51.142;17.052;2023-02-13T01:29:46;12.48;;;5.57;;
74309;SDS011;62722;51.142;17.052;2023-02-13T01:32:14;13.82;;;6.15;;
74309;SDS011;62722;51.142;17.052;2023-02-13T01:34:41;13.45;;;5.53;;
74309;SDS011;62722;51.142;17.052;2023-02-13T01:37:10;13.45;;;5.55;;
74309;SDS011;62722;51.142;17.052;2023-02-13T01:39:37;13.27;;;5.70;;
74309;SDS011;62722;51.142;17.052;2023-02-13T01:42:04;12.32;;;4.95;;
74309;SDS011;62722;51.142;17.052;2023-02-13T01:44:45;16.95;;;5.90;;
74309;SDS011;62722;51.142;17.052;2023-02-13T01:47:15;10.82;;;6.25;;
74309;SDS011;62722;51.142;17.052;2023-02-13T01:49:48;14.07;;;5.65;;
74309;SDS011;62722;51.142;17.052;2023-02-13T01:52:20;12.73;;;5.68;;
74309;SDS011;62722;51.142;17.052;2023-02-13T01:54:47;12.18;;;5.03;;
74309;SDS011;62722;51.142;17.052;2023-02-13T01:57:15;13.40;;;5.82;;
74309;SDS011;62722;51.142;17.052;2023-02-13T01:59:47;12.15;;;5.90;;
74309;SDS011;62722;51.142;17.052;2023-02-13T02:02:18;13.82;;;5.45;;
74309;SDS011;62722;51.142;17.052;2023-02-13T02:04:47;12.48;;;5.38;;
74309;SDS011;62722;51.142;17.052;2023-02-13T02:07:16;12.90;;;6.05;;
74309;SDS011;62722;51.142;17.052;2023-02-13T02:09:47;15.32;;;6.00;;
74309;SDS011;62722;51.142;17.052;2023-02-13T02:12:18;13.02;;;5.80;;
74309;SDS011;62722;51.142;17.052;2023-02-13T02:14:49;14.98;;;5.70;;
74309;SDS011;62722;51.142;17.052;2023-02-13T02:17:19;12.43;;;5.68;;
74309;SDS011;62722;51.142;17.052;2023-02-13T02:19:49;13.80;;;5.40;;
74309;SDS011;62722;51.142;17.052;2023-02-13T02:22:36;13.20;;;5.53;;
74309;SDS011;62722;51.142;17.052;2023-02-13T02:28:45;14.60;;;5.75;;
74309;SDS011;62722;51.142;17.052;2023-02-13T02:31:45;12.38;;;5.82;;
74309;SDS011;62722;51.142;17.052;2023-02-13T02:34:40;15.32;;;6.07;;
74309;SDS011;62722;51.142;17.052;2023-02-13T02:37:17;11.73;;;5.50;;
74309;SDS011;62722;51.142;17.052;2023-02-13T02:39:56;14.20;;;5.60;;
74309;SDS011;62722;51.142;17.052;2023-02-13T02:42:38;18.80;;;6.30;;
74309;SDS011;62722;51.142;17.052;2023-02-13T02:45:15;13.30;;;6.82;;
74309;SDS011;62722;51.142;17.052;2023-02-13T02:47:53;16.30;;;6.15;;
74309;SDS011;62722;51.142;17.052;2023-02-13T02:50:43;17.50;;;6.72;;
74309;SDS011;62722;51.142;17.052;2023-02-13T02:53:17;15.30;;;5.80;;
74309;SDS011;62722;51.142;17.052;2023-02-13T02:55:57;13.40;;;6.28;;
74309;SDS011;62722;51.142;17.052;2023-02-13T02:58:32;14.85;;;6.47;;
74309;SDS011;62722;51.142;17.052;2023-02-13T03:01:23;12.30;;;6.13;;
74309;SDS011;62722;51.142;17.052;2023-02-13T03:04:14;15.93;;;6.40;;
74309;SDS011;62722;51.142;17.052;2023-02-13T03:07:05;18.27;;;6.63;;
74309;SDS011;62722;51.142;17.052;2023-02-13T03:09:35;18.38;;;7.13;;
74309;SDS011;62722;51.142;17.052;2023-02-13T03:12:23;12.25;;;6.32;;
74309;SDS011;62722;51.142;17.052;2023-02-13T03:15:13;15.30;;;6.72;;
74309;SDS011;62722;51.142;17.052;2023-02-13T03:17:40;17.77;;;7.30;;
74309;SDS011;62722;51.142;17.052;2023-02-13T03:20:29;14.50;;;6.38;;
74309;SDS011;62722;51.142;17.052;2023-02-13T03:23:26;22.13;;;7.20;;
74309;SDS011;62722;51.142;17.052;2023-02-13T03:28:40;17.38;;;6.78;;
74309;SDS011;62722;51.142;17.052;2023-02-13T03:31:33;16.88;;;7.22;;
74309;SDS011;62722;51.142;17.052;2023-02-13T03:34:03;17.33;;;8.30;;
74309;SDS011;62722;51.142;17.052;2023-02-13T03:36:36;17.70;;;7.25;;
74309;SDS011;62722;51.142;17.052;2023-02-13T03:39:30;19.85;;;7.53;;
74309;SDS011;62722;51.142;17.052;2023-02-13T03:42:06;13.88;;;6.97;;
74309;SDS011;62722;51.142;17.052;2023-02-13T03:44:38;16.90;;;7.05;;
74309;SDS011;62722;51.142;17.052;2023-02-13T03:47:08;16.90;;;7.32;;
74309;SDS011;62722;51.142;17.052;2023-02-13T03:49:38;17.80;;;7.60;;
74309;SDS011;62722;51.142;17.052;2023-02-13T03:52:28;19.35;;;8.13;;
74309;SDS011;62722;51.142;17.052;2023-02-13T03:54:59;18.65;;;7.68;;
74309;SDS011;62722;51.142;17.052;2023-02-13T03:57:48;16.20;;;7.00;;
74309;SDS011;62722;51.142;17.052;2023-02-13T04:00:36;19.58;;;7.43;;
74309;SDS011;62722;51.142;17.052;2023-02-13T04:03:07;18.88;;;7.80;;
74309;SDS011;62722;51.142;17.052;2023-02-13T04:05:40;19.17;;;9.00;;
74309;SDS011;62722;51.142;17.052;2023-02-13T04:08:14;19.85;;;8.20;;
74309;SDS011;62722;51.142;17.052;2023-02-13T04:10:43;19.27;;;7.97;;
74309;SDS011;62722;51.142;17.052;2023-02-13T04:13:17;19.83;;;8.80;;
74309;SDS011;62722;51.142;17.052;2023-02-13T04:15:49;22.08;;;9.27;;
74309;SDS011;62722;51.142;17.052;2023-02-13T04:18:19;19.13;;;8.75;;
74309;SDS011;62722;51.142;17.052;2023-02-13T04:20:49;20.00;;;9.30;;
74309;SDS011;62722;51.142;17.052;2023-02-13T04:23:18;19.42;;;8.75;;
74309;SDS011;62722;51.142;17.052;2023-02-13T04:25:47;19.55;;;8.15;;
74309;SDS011;62722;51.142;17.052;2023-02-13T04:28:16;21.23;;;9.13;;
74309;SDS011;62722;51.142;17.052;2023-02-13T04:30:43;24.70;;;10.25;;
74309;SDS011;62722;51.142;17.052;2023-02-13T04:33:10;21.60;;;9.25;;
74309;SDS011;62722;51.142;17.052;2023-02-13T04:35:38;24.65;;;9.10;;
74309;SDS011;62722;51.142;17.052;2023-02-13T04:38:05;20.98;;;8.57;;
74309;SDS011;62722;51.142;17.052;2023-02-13T04:40:33;21.65;;;9.18;;
74309;SDS011;62722;51.142;17.052;2023-02-13T04:43:00;20.40;;;9.60;;
74309;SDS011;62722;51.142;17.052;2023-02-13T04:45:29;29.02;;;11.95;;
74309;SDS011;62722;51.142;17.052;2023-02-13T04:47:57;26.42;;;11.23;;
74309;SDS011;62722;51.142;17.052;2023-02-13T04:50:24;22.25;;;10.25;;
74309;SDS011;62722;51.142;17.052;2023-02-13T04:52:52;26.20;;;10.20;;
74309;SDS011;62722;51.142;17.052;2023-02-13T04:55:21;23.83;;;9.95;;
74309;SDS011;62722;51.142;17.052;2023-02-13T04:57:49;22.02;;;9.68;;
74309;SDS011;62722;51.142;17.052;2023-02-13T05:00:18;22.25;;;10.30;;
74309;SDS011;62722;51.142;17.052;2023-02-13T05:02:46;22.73;;;9.57;;
74309;SDS011;62722;51.142;17.052;2023-02-13T05:05:13;27.38;;;10.32;;
74309;SDS011;62722;51.142;17.052;2023-02-13T05:07:41;25.77;;;11.25;;
74309;SDS011;62722;51.142;17.052;2023-02-13T05:10:08;26.20;;;11.18;;
74309;SDS011;62722;51.142;17.052;2023-02-13T05:12:36;28.70;;;10.32;;
74309;SDS011;62722;51.142;17.052;2023-02-13T05:15:05;27.30;;;11.70;;
74309;SDS011;62722;51.142;17.052;2023-02-13T05:17:33;26.08;;;11.57;;
74309;SDS011;62722;51.142;17.052;2023-02-13T05:20:00;25.70;;;10.75;;
74309;SDS011;62722;51.142;17.052;2023-02-13T05:22:27;22.23;;;9.85;;
74309;SDS011;62722;51.142;17.052;2023-02-13T05:25:11;26.63;;;10.88;;
74309;SDS011;62722;51.142;17.052;2023-02-13T05:27:38;23.33;;;10.02;;
74309;SDS011;62722;51.142;17.052;2023-02-13T05:30:08;26.50;;;10.45;;
74309;SDS011;62722;51.142;17.052;2023-02-13T05:32:34;21.27;;;9.43;;
74309;SDS011;62722;51.142;17.052;2023-02-13T05:35:02;20.77;;;10.02;;
74309;SDS011;62722;51.142;17.052;2023-02-13T05:37:29;24.92;;;8.93;;
74309;SDS011;62722;51.142;17.052;2023-02-13T05:39:57;23.75;;;9.60;;
74309;SDS011;62722;51.142;17.052;2023-02-13T05:42:24;24.00;;;9.32;;
74309;SDS011;62722;51.142;17.052;2023-02-13T05:44:51;19.10;;;8.57;;
74309;SDS011;62722;51.142;17.052;2023-02-13T05:47:19;20.70;;;8.80;;
74309;SDS011;62722;51.142;17.052;2023-02-13T05:49:47;20.75;;;8.60;;
74309;SDS011;62722;51.142;17.052;2023-02-13T05:52:14;21.08;;;8.73;;
74309;SDS011;62722;51.142;17.052;2023-02-13T05:54:41;17.90;;;8.75;;
74309;SDS011;62722;51.142;17.052;2023-02-13T05:57:08;22.10;;;8.15;;
74309;SDS011;62722;51.142;17.052;2023-02-13T05:59:36;19.52;;;8.15;;
74309;SDS011;62722;51.142;17.052;2023-02-13T06:02:03;22.17;;;8.35;;
74309;SDS011;62722;51.142;17.052;2023-02-13T06:04:32;19.98;;;8.52;;
74309;SDS011;62722;51.142;17.052;2023-02-13T06:06:59;18.33;;;8.68;;
74309;SDS011;62722;51.142;17.052;2023-02-13T06:09:26;21.00;;;8.80;;
74309;SDS011;62722;51.142;17.052;2023-02-13T06:11:53;23.63;;;9.65;;
74309;SDS011;62722;51.142;17.052;2023-02-13T06:14:20;23.27;;;9.00;;
74309;SDS011;62722;51.142;17.052;2023-02-13T06:16:47;20.67;;;8.85;;
74309;SDS011;62722;51.142;17.052;2023-02-13T06:19:15;22.67;;;9.82;;
74309;SDS011;62722;51.142;17.052;2023-02-13T06:21:43;21.30;;;8.40;;
74309;SDS011;62722;51.142;17.052;2023-02-13T06:24:10;19.35;;;8.98;;
74309;SDS011;62722;51.142;17.052;2023-02-13T06:26:38;17.85;;;8.13;;
74309;SDS011;62722;51.142;17.052;2023-02-13T06:29:05;22.65;;;9.25;;
74309;SDS011;62722;51.142;17.052;2023-02-13T06:31:33;19.20;;;7.75;;
74309;SDS011;62722;51.142;17.052;2023-02-13T06:34:01;22.13;;;9.23;;
74309;SDS011;62722;51.142;17.052;2023-02-13T06:36:28;20.27;;;8.32;;
74309;SDS011;62722;51.142;17.052;2023-02-13T06:38:57;19.88;;;8.85;;
74309;SDS011;62722;51.142;17.052;2023-02-13T06:41:23;20.83;;;8.48;;
74309;SDS011;62722;51.142;17.052;2023-02-13T06:43:51;21.75;;;8.65;;
74309;SDS011;62722;51.142;17.052;2023-02-13T06:46:18;18.70;;;8.23;;
74309;SDS011;62722;51.142;17.052;2023-02-13T06:48:45;21.27;;;8.88;;
74309;SDS011;62722;51.142;17.052;2023-02-13T06:51:12;20.30;;;8.57;;
74309;SDS011;62722;51.142;17.052;2023-02-13T06:53:39;22.27;;;8.80;;
74309;SDS011;62722;51.142;17.052;2023-02-13T06:56:08;22.52;;;9.18;;
74309;SDS011;62722;51.142;17.052;2023-02-13T06:58:36;21.80;;;7.70;;
74309;SDS011;62722;51.142;17.052;2023-02-13T07:01:04;21.90;;;8.63;;
74309;SDS011;62722;51.142;17.052;2023-02-13T07:03:31;20.17;;;8.35;;
74309;SDS011;62722;51.142;17.052;2023-02-13T07:05:58;21.48;;;9.30;;
74309;SDS011;62722;51.142;17.052;2023-02-13T07:08:26;23.15;;;9.65;;
74309;SDS011;62722;51.142;17.052;2023-02-13T07:10:53;19.90;;;9.20;;
74309;SDS011;62722;51.142;17.052;2023-02-13T07:13:22;20.55;;;8.48;;
74309;SDS011;62722;51.142;17.052;2023-02-13T07:15:49;21.52;;;9.25;;
74309;SDS011;62722;51.142;17.052;2023-02-13T07:18:16;22.05;;;8.80;;
74309;SDS011;62722;51.142;17.052;2023-02-13T07:20:43;21.98;;;9.05;;
74309;SDS011;62722;51.142;17.052;2023-02-13T07:23:11;22.38;;;8.88;;
74309;SDS011;62722;51.142;17.052;2023-02-13T07:25:38;22.13;;;8.45;;
74309;SDS011;62722;51.142;17.052;2023-02-13T07:28:05;19.05;;;8.30;;
74309;SDS011;62722;51.142;17.052;2023-02-13T07:30:34;21.05;;;9.02;;
74309;SDS011;62722;51.142;17.052;2023-02-13T07:33:01;20.75;;;9.10;;
74309;SDS011;62722;51.142;17.052;2023-02-13T07:35:30;18.48;;;8.73;;
74309;SDS011;62722;51.142;17.052;2023-02-13T07:37:58;22.77;;;9.27;;
74309;SDS011;62722;51.142;17.052;2023-02-13T07:40:25;19.00;;;8.57;;
74309;SDS011;62722;51.142;17.052;2023-02-13T07:42:53;19.55;;;8.50;;
74309;SDS011;62722;51.142;17.052;2023-02-13T07:45:20;18.08;;;8.38;;
74309;SDS011;62722;51.142;17.052;2023-02-13T07:47:49;22.15;;;8.55;;
74309;SDS011;62722;51.142;17.052;2023-02-13T07:50:16;21.98;;;9.00;;
74309;SDS011;62722;51.142;17.052;2023-02-13T07:52:43;24.95;;;8.55;;
74309;SDS011;62722;51.142;17.052;2023-02-13T07:55:10;22.08;;;8.50;;
74309;SDS011;62722;51.142;17.052;2023-02-13T07:57:38;19.15;;;8.60;;
74309;SDS011;62722;51.142;17.052;2023-02-13T08:00:05;21.73;;;8.40;;
74309;SDS011;62722;51.142;17.052;2023-02-13T08:02:33;23.27;;;9.85;;
74309;SDS011;62722;51.142;17.052;2023-02-13T08:05:02;27.13;;;9.68;;
74309;SDS011;62722;51.142;17.052;2023-02-13T08:07:29;22.77;;;8.93;;
74309;SDS011;62722;51.142;17.052;2023-02-13T08:09:56;23.50;;;9.50;;
74309;SDS011;62722;51.142;17.052;2023-02-13T08:12:41;20.05;;;8.45;;
74309;SDS011;62722;51.142;17.052;2023-02-13T08:15:08;24.05;;;9.20;;
74309;SDS011;62722;51.142;17.052;2023-02-13T08:17:38;23.02;;;9.95;;
74309;SDS011;62722;51.142;17.052;2023-02-13T08:20:07;19.67;;;8.73;;
74309;SDS011;62722;51.142;17.052;2023-02-13T08:22:35;23.92;;;9.70;;
74309;SDS011;62722;51.142;17.052;2023-02-13T08:25:03;22.35;;;8.95;;
74309;SDS011;62722;51.142;17.052;2023-02-13T08:27:30;21.55;;;8.98;;
74309;SDS011;62722;51.142;17.052;2023-02-13T08:29:58;23.13;;;9.20;;
74309;SDS011;62722;51.142;17.052;2023-02-13T08:32:26;21.83;;;9.15;;
74309;SDS011;62722;51.142;17.052;2023-02-13T08:34:53;25.65;;;8.35;;
74309;SDS011;62722;51.142;17.052;2023-02-13T08:37:22;19.67;;;8.52;;
74309;SDS011;62722;51.142;17.052;2023-02-13T08:39:50;22.15;;;8.18;;
74309;SDS011;62722;51.142;17.052;2023-02-13T08:42:17;22.77;;;7.90;;
74309;SDS011;62722;51.142;17.052;2023-02-13T08:44:44;23.05;;;7.88;;
74309;SDS011;62722;51.142;17.052;2023-02-13T08:47:11;23.15;;;8.43;;
74309;SDS011;62722;51.142;17.052;2023-02-13T08:49:38;20.35;;;7.20;;
74309;SDS011;62722;51.142;17.052;2023-02-13T08:52:06;19.20;;;7.60;;
74309;SDS011;62722;51.142;17.052;2023-02-13T08:54:34;21.27;;;7.03;;
74309;SDS011;62722;51.142;17.052;2023-02-13T08:57:02;22.48;;;8.32;;
74309;SDS011;62722;51.142;17.052;2023-02-13T08:59:29;23.05;;;8.73;;
74309;SDS011;62722;51.142;17.052;2023-02-13T09:01:56;24.48;;;7.90;;
74309;SDS011;62722;51.142;17.052;2023-02-13T09:04:23;19.95;;;7.10;;
74309;SDS011;62722;51.142;17.052;2023-02-13T09:06:50;16.08;;;6.20;;
74309;SDS011;62722;51.142;17.052;2023-02-13T09:09:18;19.55;;;7.30;;
74309;SDS011;62722;51.142;17.052;2023-02-13T09:11:46;18.83;;;7.25;;
74309;SDS011;62722;51.142;17.052;2023-02-13T09:14:15;15.98;;;6.03;;
74309;SDS011;62722;51.142;17.052;2023-02-13T09:16:42;15.65;;;5.28;;
74309;SDS011;62722;51.142;17.052;2023-02-13T09:19:09;11.43;;;4.68;;
74309;SDS011;62722;51.142;17.052;2023-02-13T09:21:36;14.70;;;5.43;;
74309;SDS011;62722;51.142;17.052;2023-02-13T09:24:05;8.40;;;3.60;;
74309;SDS011;62722;51.142;17.052;2023-02-13T09:26:33;7.07;;;2.95;;
74309;SDS011;62722;51.142;17.052;2023-02-13T09:29:01;5.68;;;2.50;;
74309;SDS011;62722;51.142;17.052;2023-02-13T09:31:29;5.13;;;2.00;;
74309;SDS011;62722;51.142;17.052;2023-02-13T09:33:56;3.17;;;1.60;;
74309;SDS011;62722;51.142;17.052;2023-02-13T09:36:23;3.50;;;1.77;;
74309;SDS011;62722;51.142;17.052;2023-02-13T09:38:51;3.78;;;1.60;;
74309;SDS011;62722;51.142;17.052;2023-02-13T09:41:20;3.38;;;1.45;;
74309;SDS011;62722;51.142;17.052;2023-02-13T09:43:49;2.53;;;1.30;;
74309;SDS011;62722;51.142;17.052;2023-02-13T09:46:20;4.15;;;1.85;;
74309;SDS011;62722;51.142;17.052;2023-02-13T09:48:53;4.80;;;1.90;;
74309;SDS011;62722;51.142;17.052;2023-02-13T09:51:24;5.07;;;2.05;;
74309;SDS011;62722;51.142;17.052;2023-02-13T09:53:54;4.32;;;1.80;;
74309;SDS011;62722;51.142;17.052;2023-02-13T09:56:26;5.30;;;2.10;;
74309;SDS011;62722;51.142;17.052;2023-02-13T09:59:30;5.15;;;2.13;;
74309;SDS011;62722;51.142;17.052;2023-02-13T10:02:07;4.63;;;2.30;;
74309;SDS011;62722;51.142;17.052;2023-02-13T10:04:51;5.40;;;2.45;;
74309;SDS011;62722;51.142;17.052;2023-02-13T10:07:30;4.68;;;2.10;;
74309;SDS011;62722;51.142;17.052;2023-02-13T10:10:07;7.90;;;2.33;;
74309;SDS011;62722;51.142;17.052;2023-02-13T10:12:55;5.28;;;2.45;;
74309;SDS011;62722;51.142;17.052;2023-02-13T10:15:34;6.50;;;2.60;;
74309;SDS011;62722;51.142;17.052;2023-02-13T10:18:09;5.00;;;2.15;;
74309;SDS011;62722;51.142;17.052;2023-02-13T10:20:41;6.07;;;2.60;;
74309;SDS011;62722;51.142;17.052;2023-02-13T10:23:15;7.15;;;2.92;;
74309;SDS011;62722;51.142;17.052;2023-02-13T10:25:49;5.82;;;1.80;;
74309;SDS011;62722;51.142;17.052;2023-02-13T10:28:25;4.35;;;2.05;;
74309;SDS011;62722;51.142;17.052;2023-02-13T10:30:58;4.63;;;1.77;;
74309;SDS011;62722;51.142;17.052;2023-02-13T10:33:33;3.90;;;1.90;;
74309;SDS011;62722;51.142;17.052;2023-02-13T10:36:04;4.20;;;1.77;;
74309;SDS011;62722;51.142;17.052;2023-02-13T10:38:41;6.57;;;2.10;;
74309;SDS011;62722;51.142;17.052;2023-02-13T10:41:19;13.77;;;12.38;;
74309;SDS011;62722;51.142;17.052;2023-02-13T10:44:04;4.20;;;1.90;;
74309;SDS011;62722;51.142;17.052;2023-02-13T10:46:45;5.10;;;2.15;;
74309;SDS011;62722;51.142;17.052;2023-02-13T10:49:26;5.38;;;1.75;;
74309;SDS011;62722;51.142;17.052;2023-02-13T10:52:10;4.65;;;2.00;;
74309;SDS011;62722;51.142;17.052;2023-02-13T10:54:51;4.15;;;2.22;;
74309;SDS011;62722;51.142;17.052;2023-02-13T10:57:43;4.72;;;2.10;;
74309;SDS011;62722;51.142;17.052;2023-02-13T11:00:26;4.65;;;1.77;;
74309;SDS011;62722;51.142;17.052;2023-02-13T11:03:00;3.97;;;2.03;;
74309;SDS011;62722;51.142;17.052;2023-02-13T11:05:30;4.72;;;2.00;;
74309;SDS011;62722;51.142;17.052;2023-02-13T11:07:59;4.28;;;2.10;;
74309;SDS011;62722;51.142;17.052;2023-02-13T11:10:27;4.35;;;1.90;;
74309;SDS011;62722;51.142;17.052;2023-02-13T11:12:54;3.95;;;1.83;;
74309;SDS011;62722;51.142;17.052;2023-02-13T11:15:23;5.38;;;2.13;;
74309;SDS011;62722;51.142;17.052;2023-02-13T11:17:52;4.18;;;2.10;;
74309;SDS011;62722;51.142;17.052;2023-02-13T11:20:22;5.85;;;2.15;;
74309;SDS011;62722;51.142;17.052;2023-02-13T11:23:08;4.30;;;1.98;;
74309;SDS011;62722;51.142;17.052;2023-02-13T11:26:09;5.18;;;2.10;;
74309;SDS011;62722;51.142;17.052;2023-02-13T11:28:44;4.07;;;2.15;;
74309;SDS011;62722;51.142;17.052;2023-02-13T11:31:21;4.68;;;2.03;;
74309;SDS011;62722;51.142;17.052;2023-02-13T11:33:51;5.25;;;2.30;;
74309;SDS011;62722;51.142;17.052;2023-02-13T11:36:23;4.03;;;2.10;;
74309;SDS011;62722;51.142;17.052;2023-02-13T11:39:00;5.72;;;2.47;;
74309;SDS011;62722;51.142;17.052;2023-02-13T11:41:30;4.45;;;1.92;;
74309;SDS011;62722;51.142;17.052;2023-02-13T11:44:04;3.85;;;1.90;;
74309;SDS011;62722;51.142;17.052;2023-02-13T11:46:45;4.25;;;2.20;;
74309;SDS011;62722;51.142;17.052;2023-02-13T11:49:16;3.35;;;1.67;;
74309;SDS011;62722;51.142;17.052;2023-02-13T11:51:47;3.72;;;1.92;;
74309;SDS011;62722;51.142;17.052;2023-02-13T11:54:30;3.58;;;1.70;;
74309;SDS011;62722;51.142;17.052;2023-02-13T11:57:02;4.40;;;2.17;;
74309;SDS011;62722;51.142;17.052;2023-02-13T11:59:45;4.60;;;2.17;;
74309;SDS011;62722;51.142;17.052;2023-02-13T12:02:15;6.05;;;1.60;;
74309;SDS011;62722;51.142;17.052;2023-02-13T12:04:44;3.10;;;1.85;;
74309;SDS011;62722;51.142;17.052;2023-02-13T12:07:14;3.63;;;1.75;;
74309;SDS011;62722;51.142;17.052;2023-02-13T12:09:46;4.47;;;2.25;;
74309;SDS011;62722;51.142;17.052;2023-02-13T12:12:17;3.88;;;2.00;;
74309;SDS011;62722;51.142;17.052;2023-02-13T12:14:48;4.32;;;2.20;;
74309;SDS011;62722;51.142;17.052;2023-02-13T12:17:17;4.50;;;2.25;;
74309;SDS011;62722;51.142;17.052;2023-02-13T12:19:48;3.67;;;1.80;;
74309;SDS011;62722;51.142;17.052;2023-02-13T12:22:21;4.70;;;1.98;;
74309;SDS011;62722;51.142;17.052;2023-02-13T12:28:01;5.25;;;2.33;;
74309;SDS011;62722;51.142;17.052;2023-02-13T12:30:50;4.32;;;2.00;;
74309;SDS011;62722;51.142;17.052;2023-02-13T12:33:56;4.82;;;2.13;;
74309;SDS011;62722;51.142;17.052;2023-02-13T12:36:44;4.18;;;2.08;;
74309;SDS011;62722;51.142;17.052;2023-02-13T12:39:24;5.18;;;2.33;;
74309;SDS011;62722;51.142;17.052;2023-02-13T12:42:00;3.72;;;2.17;;
74309;SDS011;62722;51.142;17.052;2023-02-13T12:44:47;3.95;;;2.13;;
74309;SDS011;62722;51.142;17.052;2023-02-13T12:47:22;3.40;;;1.80;;
74309;SDS011;62722;51.142;17.052;2023-02-13T12:55:52;3.45;;;1.70;;
74309;SDS011;62722;51.142;17.052;2023-02-13T12:58:43;3.05;;;1.55;;
74309;SDS011;62722;51.142;17.052;2023-02-13T13:01:23;4.13;;;2.08;;
74309;SDS011;62722;51.142;17.052;2023-02-13T13:04:12;4.50;;;2.20;;
74309;SDS011;62722;51.142;17.052;2023-02-13T13:06:49;5.28;;;2.28;;
74309;SDS011;62722;51.142;17.052;2023-02-13T13:09:30;3.97;;;2.20;;
74309;SDS011;62722;51.142;17.052;2023-02-13T13:12:15;4.93;;;2.70;;
74309;SDS011;62722;51.142;17.052;2023-02-13T13:14:54;3.72;;;1.98;;
74309;SDS011;62722;51.142;17.052;2023-02-13T13:17:32;4.80;;;2.10;;
74309;SDS011;62722;51.142;17.052;2023-02-13T13:20:16;4.88;;;2.22;;
74309;SDS011;62722;51.142;17.052;2023-02-13T13:23:01;3.30;;;2.05;;
74309;SDS011;62722;51.142;17.052;2023-02-13T13:25:33;4.30;;;1.95;;
74309;SDS011;62722;51.142;17.052;2023-02-13T13:28:09;4.57;;;2.13;;
74309;SDS011;62722;51.142;17.052;2023-02-13T13:30:42;4.22;;;2.25;;
74309;SDS011;62722;51.142;17.052;2023-02-13T13:33:13;5.15;;;2.50;;
74309;SDS011;62722;51.142;17.052;2023-02-13T13:35:42;4.10;;;2.40;;
74309;SDS011;62722;51.142;17.052;2023-02-13T13:40:51;4.53;;;2.40;;
74309;SDS011;62722;51.142;17.052;2023-02-13T13:43:25;5.57;;;1.85;;
74309;SDS011;62722;51.142;17.052;2023-02-13T13:46:01;5.43;;;2.13;;
74309;SDS011;62722;51.142;17.052;2023-02-13T13:51:25;4.85;;;2.08;;
74309;SDS011;62722;51.142;17.052;2023-02-13T13:57:07;5.93;;;2.60;;
74309;SDS011;62722;51.142;17.052;2023-02-13T13:59:56;5.18;;;2.45;;
74309;SDS011;62722;51.142;17.052;2023-02-13T14:02:43;6.45;;;2.83;;
74309;SDS011;62722;51.142;17.052;2023-02-13T14:05:17;4.35;;;2.22;;
74309;SDS011;62722;51.142;17.052;2023-02-13T14:07:48;7.75;;;3.28;;
74309;SDS011;62722;51.142;17.052;2023-02-13T14:13:29;3.60;;;1.92;;
74309;SDS011;62722;51.142;17.052;2023-02-13T14:15:57;4.32;;;2.17;;
74309;SDS011;62722;51.142;17.052;2023-02-13T14:18:26;3.85;;;2.17;;
74309;SDS011;62722;51.142;17.052;2023-02-13T14:20:56;4.53;;;2.20;;
74309;SDS011;62722;51.142;17.052;2023-02-13T14:23:27;4.93;;;2.53;;
74309;SDS011;62722;51.142;17.052;2023-02-13T14:26:17;4.78;;;2.78;;
74309;SDS011;62722;51.142;17.052;2023-02-13T14:28:55;4.03;;;2.40;;
74309;SDS011;62722;51.142;17.052;2023-02-13T14:31:26;6.18;;;2.75;;
74309;SDS011;62722;51.142;17.052;2023-02-13T14:33:58;5.82;;;2.70;;
74309;SDS011;62722;51.142;17.052;2023-02-13T14:36:29;4.97;;;2.53;;
74309;SDS011;62722;51.142;17.052;2023-02-13T14:38:59;4.30;;;2.40;;
74309;SDS011;62722;51.142;17.052;2023-02-13T14:41:42;5.53;;;2.55;;
74309;SDS011;62722;51.142;17.052;2023-02-13T14:44:22;6.55;;;3.33;;
74309;SDS011;62722;51.142;17.052;2023-02-13T14:46:52;7.95;;;3.28;;
74309;SDS011;62722;51.142;17.052;2023-02-13T14:49:23;6.32;;;3.10;;
74309;SDS011;62722;51.142;17.052;2023-02-13T14:51:53;6.97;;;2.90;;
74309;SDS011;62722;51.142;17.052;2023-02-13T14:54:24;5.30;;;2.75;;
74309;SDS011;62722;51.142;17.052;2023-02-13T14:56:53;5.43;;;2.50;;
74309;SDS011;62722;51.142;17.052;2023-02-13T14:59:30;5.07;;;2.35;;
74309;SDS011;62722;51.142;17.052;2023-02-13T15:02:06;5.97;;;2.75;;
74309;SDS011;62722;51.142;17.052;2023-02-13T15:04:43;5.57;;;2.67;;
74309;SDS011;62722;51.142;17.052;2023-02-13T15:07:16;8.73;;;4.07;;
74309;SDS011;62722;51.142;17.052;2023-02-13T15:09:47;9.38;;;4.70;;
74309;SDS011;62722;51.142;17.052;2023-02-13T15:12:25;7.55;;;4.03;;
74309;SDS011;62722;51.142;17.052;2023-02-13T15:14:53;6.15;;;2.55;;
74309;SDS011;62722;51.142;17.052;2023-02-13T15:17:21;7.07;;;2.70;;
74309;SDS011;62722;51.142;17.052;2023-02-13T15:19:53;5.53;;;2.83;;
74309;SDS011;62722;51.142;17.052;2023-02-13T15:22:25;6.03;;;2.60;;